createdAt,value
2023-02-19T00:01:28.776Z,48.99
2023-02-19T00:03:57.565Z,48.59
2023-02-19T00:06:25.261Z,48.45
2023-02-19T00:08:52.426Z,48.39
2023-02-19T00:11:20.708Z,48.54
2023-02-19T00:13:49.522Z,48.17
2023-02-19T00:16:17.621Z,47.65
2023-02-19T00:18:45.338Z,46.99
2023-02-19T00:21:12.926Z,47.83
2023-02-19T00:23:40.174Z,47.51
2023-02-19T00:26:18.312Z,47.06
2023-02-19T00:28:46.668Z,46.94
2023-02-19T00:31:21.740Z,46.95
2023-02-19T00:33:49.657Z,47.32
2023-02-19T00:36:17.276Z,48.00
2023-02-19T00:38:44.800Z,48.65
2023-02-19T00:41:21.240Z,48.41
2023-02-19T00:43:48.749Z,48.48
2023-02-19T00:46:16.542Z,48.46
2023-02-19T00:48:43.851Z,48.44
2023-02-19T00:51:11.597Z,48.23
2023-02-19T00:53:38.998Z,47.97
2023-02-19T00:56:06.677Z,47.99
2023-02-19T00:58:34.168Z,48.73
2023-02-19T01:01:01.431Z,47.74
2023-02-19T01:03:28.677Z,48.44
2023-02-19T01:05:56.192Z,48.36
2023-02-19T01:08:23.374Z,48.16
2023-02-19T01:10:50.573Z,48.20
2023-02-19T01:13:18.166Z,47.85
2023-02-19T01:15:45.516Z,48.14
2023-02-19T01:18:12.719Z,48.06
2023-02-19T01:20:40.845Z,48.60
2023-02-19T01:23:08.157Z,49.16
2023-02-19T01:25:35.345Z,48.67
2023-02-19T01:28:03.033Z,49.38
2023-02-19T01:30:30.174Z,49.47
2023-02-19T01:32:57.408Z,50.25
2023-02-19T01:35:26.535Z,49.92
2023-02-19T01:37:53.704Z,50.15
2023-02-19T01:40:21.534Z,51.08
2023-02-19T01:42:48.974Z,51.33
2023-02-19T01:45:26.993Z,51.05
2023-02-19T01:48:11.563Z,51.03
2023-02-19T01:50:46.180Z,50.97
2023-02-19T01:53:13.894Z,52.14
2023-02-19T01:55:41.137Z,52.52
2023-02-19T01:58:08.378Z,52.09
2023-02-19T02:00:38.314Z,51.95
2023-02-19T02:03:05.900Z,51.37
2023-02-19T02:05:36.439Z,52.61
2023-02-19T02:08:22.581Z,51.48
2023-02-19T02:10:50.206Z,51.62
2023-02-19T02:13:17.619Z,53.13
2023-02-19T02:15:47.366Z,54.05
2023-02-19T02:18:26.842Z,54.25
2023-02-19T02:21:23.628Z,54.86
2023-02-19T02:23:56.467Z,54.73
2023-02-19T02:26:32.377Z,55.94
2023-02-19T02:29:11.848Z,55.80
2023-02-19T02:31:41.495Z,55.39
2023-02-19T02:34:14.216Z,55.58
2023-02-19T02:36:42.628Z,56.27
2023-02-19T02:39:14.606Z,56.09
2023-02-19T02:41:42.981Z,57.07
2023-02-19T02:44:10.455Z,56.76
2023-02-19T02:46:38.859Z,56.46
2023-02-19T02:49:07.029Z,56.11
2023-02-19T02:51:45.070Z,55.88
2023-02-19T02:54:35.632Z,56.20
2023-02-19T02:57:03.340Z,55.74
2023-02-19T02:59:32.105Z,55.17
2023-02-19T03:02:14.118Z,56.37
2023-02-19T03:05:11.931Z,55.68
2023-02-19T03:07:43.975Z,55.82
2023-02-19T03:10:12.621Z,56.39
2023-02-19T03:12:59.042Z,55.63
2023-02-19T03:15:50.850Z,55.65
2023-02-19T03:18:36.780Z,55.58
2023-02-19T03:21:04.382Z,55.80
2023-02-19T03:23:50.563Z,55.58
2023-02-19T03:26:18.260Z,55.15
2023-02-19T03:29:04.550Z,55.28
2023-02-19T03:31:32.372Z,54.86
2023-02-19T03:34:00.339Z,55.07
2023-02-19T03:36:28.729Z,54.31
2023-02-19T03:39:00.546Z,54.07
2023-02-19T03:41:33.849Z,55.02
2023-02-19T03:44:07.982Z,54.35
2023-02-19T03:46:44.506Z,55.61
2023-02-19T03:49:25.006Z,55.41
2023-02-19T03:52:10.447Z,56.39
2023-02-19T03:54:38.573Z,55.72
2023-02-19T03:57:24.007Z,56.20
2023-02-19T03:59:53.773Z,57.42
2023-02-19T04:02:32.903Z,57.10
2023-02-19T04:05:12.013Z,56.36
2023-02-19T04:07:42.040Z,55.93
2023-02-19T04:10:09.700Z,55.56
2023-02-19T04:12:39.350Z,55.48
2023-02-19T04:15:13.577Z,56.10
2023-02-19T04:17:46.122Z,55.40
2023-02-19T04:20:13.253Z,57.22
2023-02-19T04:22:40.672Z,56.12
2023-02-19T04:25:08.252Z,56.00
2023-02-19T04:27:39.014Z,54.70
2023-02-19T04:30:07.161Z,53.96
2023-02-19T04:32:34.303Z,53.94
2023-02-19T04:35:01.612Z,53.30
2023-02-19T04:37:29.153Z,53.49
2023-02-19T04:39:56.306Z,53.85
2023-02-19T04:42:23.463Z,54.71
2023-02-19T04:44:50.933Z,54.38
2023-02-19T04:47:18.081Z,54.96
2023-02-19T04:49:45.576Z,55.01
2023-02-19T04:52:13.124Z,55.10
2023-02-19T04:54:40.270Z,54.88
2023-02-19T04:57:07.441Z,53.93
2023-02-19T04:59:34.915Z,55.25
2023-02-19T05:02:02.121Z,54.86
2023-02-19T05:04:29.297Z,54.50
2023-02-19T05:06:56.760Z,54.32
2023-02-19T05:09:23.909Z,54.05
2023-02-19T05:11:51.091Z,53.88
2023-02-19T05:14:18.602Z,53.97
2023-02-19T05:16:45.784Z,54.24
2023-02-19T05:19:12.972Z,54.46
2023-02-19T05:21:40.721Z,56.12
2023-02-19T05:24:07.892Z,55.73
2023-02-19T05:26:35.228Z,54.62
2023-02-19T05:29:02.709Z,54.14
2023-02-19T05:31:30.018Z,55.04
2023-02-19T05:33:57.265Z,54.57
2023-02-19T05:36:24.704Z,54.75
2023-02-19T05:38:52.732Z,56.80
2023-02-19T05:41:21.091Z,56.07
2023-02-19T05:43:49.069Z,54.99
2023-02-19T05:46:17.684Z,56.64
2023-02-19T05:48:45.092Z,57.56
2023-02-19T05:51:13.575Z,56.57
2023-02-19T05:53:40.743Z,55.13
2023-02-19T05:56:19.340Z,55.96
2023-02-19T05:58:46.755Z,55.50
2023-02-19T06:01:17.422Z,54.70
2023-02-19T06:03:44.944Z,55.73
2023-02-19T06:06:15.926Z,55.65
2023-02-19T06:08:43.297Z,57.52
2023-02-19T06:11:10.947Z,57.23
2023-02-19T06:13:38.310Z,55.96
2023-02-19T06:16:06.030Z,56.27
2023-02-19T06:18:33.654Z,55.17
2023-02-19T06:21:04.947Z,54.34
2023-02-19T06:23:32.306Z,54.41
2023-02-19T06:26:19.596Z,54.08
2023-02-19T06:28:47.404Z,54.24
2023-02-19T06:31:15.161Z,54.42
2023-02-19T06:33:42.556Z,53.72
2023-02-19T06:36:16.350Z,53.70
2023-02-19T06:38:43.841Z,52.78
2023-02-19T06:41:11.650Z,53.12
2023-02-19T06:43:38.990Z,54.01
2023-02-19T06:46:06.748Z,53.27
2023-02-19T06:48:34.005Z,53.62
2023-02-19T06:51:01.151Z,54.31
2023-02-19T06:53:28.632Z,55.48
2023-02-19T06:55:59.254Z,53.92
2023-02-19T06:58:26.487Z,54.01
2023-02-19T07:00:54.361Z,54.03
2023-02-19T07:03:21.605Z,53.93
2023-02-19T07:05:49.012Z,55.49
2023-02-19T07:08:19.507Z,55.05
2023-02-19T07:10:53.603Z,54.99
2023-02-19T07:13:21.027Z,54.84
2023-02-19T07:15:48.682Z,56.55
2023-02-19T07:18:16.693Z,57.64
2023-02-19T07:20:44.162Z,58.35
2023-02-19T07:23:11.317Z,57.50
2023-02-19T07:25:39.047Z,58.02
2023-02-19T07:28:06.970Z,58.71
2023-02-19T07:30:34.237Z,58.82
2023-02-19T07:33:01.621Z,57.92
2023-02-19T07:35:29.006Z,57.33
2023-02-19T07:37:56.133Z,57.61
2023-02-19T07:40:23.317Z,56.80
2023-02-19T07:42:50.770Z,57.23
2023-02-19T07:45:17.923Z,58.27
2023-02-19T07:47:45.135Z,58.97
2023-02-19T07:50:14.042Z,58.42
2023-02-19T07:52:41.368Z,59.33
2023-02-19T07:55:08.594Z,60.34
2023-02-19T07:57:36.041Z,60.70
2023-02-19T08:00:03.369Z,61.61
2023-02-19T08:03:05.920Z,63.13
2023-02-19T08:05:34.642Z,65.33
2023-02-19T08:08:01.823Z,65.04
2023-02-19T08:10:47.819Z,64.79
2023-02-19T08:13:28.103Z,65.26
2023-02-19T08:16:01.648Z,65.83
2023-02-19T08:18:35.242Z,66.64
2023-02-19T08:21:02.384Z,66.55
2023-02-19T08:23:29.629Z,67.30
2023-02-19T08:25:57.823Z,67.04
2023-02-19T08:28:24.956Z,67.77
2023-02-19T08:30:52.203Z,67.43
2023-02-19T08:33:21.101Z,66.74
2023-02-19T08:35:48.217Z,66.71
2023-02-19T08:38:16.474Z,66.84
2023-02-19T08:40:44.144Z,65.68
2023-02-19T08:43:15.374Z,65.15
2023-02-19T08:45:43.225Z,65.17
2023-02-19T08:48:11.352Z,64.63
2023-02-19T08:50:38.775Z,64.32
2023-02-19T08:53:06.305Z,64.74
2023-02-19T08:55:33.833Z,66.77
2023-02-19T08:58:01.249Z,65.57
2023-02-19T09:00:28.691Z,65.98
2023-02-19T09:02:57.681Z,65.85
2023-02-19T09:05:24.866Z,64.64
2023-02-19T09:07:52.044Z,64.90
2023-02-19T09:10:19.592Z,64.68
2023-02-19T09:12:46.715Z,65.58
2023-02-19T09:15:14.274Z,65.55
2023-02-19T09:17:41.787Z,64.52
2023-02-19T09:20:09.288Z,65.45
2023-02-19T09:22:39.354Z,64.14
2023-02-19T09:25:06.839Z,62.70
2023-02-19T09:27:34.040Z,63.06
2023-02-19T09:30:01.517Z,63.24
2023-02-19T09:32:32.363Z,64.82
2023-02-19T09:34:59.516Z,63.74
2023-02-19T09:37:27.425Z,63.54
2023-02-19T09:39:55.123Z,62.51
2023-02-19T09:42:27.495Z,61.82
2023-02-19T09:44:55.511Z,62.06
2023-02-19T09:47:23.546Z,62.80
2023-02-19T09:49:52.263Z,63.01
2023-02-19T09:52:27.933Z,63.63
2023-02-19T09:54:57.865Z,63.01
2023-02-19T09:57:25.934Z,63.85
2023-02-19T09:59:54.222Z,63.57
2023-02-19T10:02:22.347Z,65.29
2023-02-19T10:04:51.275Z,65.36
2023-02-19T10:07:22.024Z,65.67
2023-02-19T10:09:56.805Z,64.91
2023-02-19T10:12:27.869Z,65.15
2023-02-19T10:15:15.643Z,63.42
2023-02-19T10:17:42.888Z,63.86
2023-02-19T10:20:28.527Z,62.44
2023-02-19T10:23:03.513Z,62.49
2023-02-19T10:25:31.433Z,61.31
2023-02-19T10:27:59.644Z,62.10
2023-02-19T10:30:33.889Z,61.54
2023-02-19T10:33:08.693Z,60.65
2023-02-19T10:35:36.404Z,58.74
2023-02-19T10:38:06.689Z,57.30
2023-02-19T10:40:33.950Z,55.76
2023-02-19T10:43:01.904Z,55.85
2023-02-19T10:45:38.831Z,54.84
2023-02-19T10:48:07.434Z,53.37
2023-02-19T10:50:37.868Z,54.33
2023-02-19T10:53:05.242Z,54.07
2023-02-19T10:55:35.545Z,51.90
2023-02-19T10:58:25.837Z,51.17
2023-02-19T11:01:13.208Z,50.31
2023-02-19T11:03:40.708Z,51.33
2023-02-19T11:06:09.008Z,50.32
2023-02-19T11:08:38.971Z,50.85
2023-02-19T11:11:06.385Z,50.11
2023-02-19T11:13:37.915Z,50.35
2023-02-19T11:16:05.242Z,48.34
2023-02-19T11:18:32.825Z,48.15
2023-02-19T11:21:04.120Z,48.24
2023-02-19T11:23:34.884Z,47.77
2023-02-19T11:26:06.544Z,47.73
2023-02-19T11:28:40.243Z,46.75
2023-02-19T11:31:15.840Z,46.75
2023-02-19T11:33:46.343Z,46.56
2023-02-19T11:36:17.807Z,47.32
2023-02-19T11:38:45.019Z,46.07
2023-02-19T11:41:18.195Z,45.24
2023-02-19T11:43:45.611Z,45.86
2023-02-19T11:46:12.807Z,45.20
2023-02-19T11:48:42.912Z,46.42
2023-02-19T11:51:10.606Z,46.89
2023-02-19T11:53:40.015Z,45.36
2023-02-19T11:56:10.312Z,45.34
2023-02-19T11:58:37.765Z,46.17
2023-02-19T12:01:25.698Z,45.30
2023-02-19T12:03:53.055Z,46.05
2023-02-19T12:06:29.037Z,46.32
2023-02-19T12:09:08.278Z,45.86
2023-02-19T12:11:46.328Z,45.23
2023-02-19T12:14:25.732Z,45.16
2023-02-19T12:17:05.435Z,45.07
2023-02-19T12:19:45.268Z,46.08
2023-02-19T12:22:31.996Z,44.72
2023-02-19T12:25:18.173Z,45.07
2023-02-19T12:28:04.333Z,46.36
2023-02-19T12:30:35.914Z,44.98
2023-02-19T12:33:06.071Z,44.63
2023-02-19T12:35:40.121Z,46.31
2023-02-19T12:38:11.542Z,45.51
2023-02-19T12:40:49.254Z,45.75
2023-02-19T12:43:20.021Z,45.87
2023-02-19T12:45:49.063Z,46.39
2023-02-19T12:48:19.227Z,45.43
2023-02-19T12:50:46.779Z,45.92
2023-02-19T12:53:17.608Z,47.24
2023-02-19T12:55:45.374Z,47.18
2023-02-19T12:58:16.694Z,47.43
2023-02-19T13:00:45.315Z,46.56
2023-02-19T13:03:31.447Z,45.32
2023-02-19T13:06:17.932Z,45.25
2023-02-19T13:09:05.846Z,45.27
2023-02-19T13:11:36.863Z,45.80
2023-02-19T13:14:13.616Z,45.66
2023-02-19T13:16:41.668Z,45.84
2023-02-19T13:19:09.363Z,44.88
2023-02-19T13:21:55.430Z,45.89
2023-02-19T13:24:24.476Z,44.63
2023-02-19T13:26:58.346Z,45.09
2023-02-19T13:29:44.754Z,46.16
2023-02-19T13:32:18.368Z,46.13
2023-02-19T13:34:48.582Z,45.75
2023-02-19T13:37:15.962Z,45.42
2023-02-19T13:39:50.755Z,46.60
2023-02-19T13:42:24.386Z,46.70
2023-02-19T13:44:57.741Z,45.72
2023-02-19T13:47:45.293Z,44.98
2023-02-19T13:50:22.721Z,48.58
2023-02-19T13:52:50.861Z,51.47
2023-02-19T13:55:41.540Z,51.10
2023-02-19T13:58:27.541Z,51.92
2023-02-19T14:00:55.053Z,51.83
2023-02-19T14:03:29.410Z,54.00
2023-02-19T14:06:05.967Z,59.85
2023-02-19T14:08:49.652Z,60.20
2023-02-19T14:11:17.425Z,59.13
2023-02-19T14:13:51.008Z,62.16
2023-02-19T14:16:30.393Z,64.69
2023-02-19T14:18:57.947Z,64.06
2023-02-19T14:21:48.513Z,65.02
2023-02-19T14:24:16.075Z,64.29
2023-02-19T14:26:43.390Z,64.79
2023-02-19T14:29:12.569Z,65.30
2023-02-19T14:31:40.378Z,65.30
2023-02-19T14:34:14.629Z,66.21
2023-02-19T14:36:48.694Z,66.69
2023-02-19T14:39:23.112Z,66.96
2023-02-19T14:41:57.599Z,66.07
2023-02-19T14:44:25.819Z,66.22
2023-02-19T14:46:57.994Z,65.32
2023-02-19T14:49:37.768Z,65.25
2023-02-19T14:52:06.955Z,66.13
2023-02-19T14:54:36.693Z,64.65
2023-02-19T14:57:04.400Z,65.78
2023-02-19T14:59:31.747Z,64.74
2023-02-19T15:02:17.881Z,63.89
2023-02-19T15:04:45.625Z,64.36
2023-02-19T15:07:17.728Z,62.67
2023-02-19T15:09:47.090Z,63.55
2023-02-19T15:12:18.952Z,61.78
2023-02-19T15:14:46.363Z,63.85
2023-02-19T15:17:22.332Z,63.16
2023-02-19T15:19:49.980Z,64.44
2023-02-19T15:22:19.133Z,62.78
2023-02-19T15:24:48.585Z,63.02
2023-02-19T15:27:20.109Z,62.33
2023-02-19T15:29:48.331Z,63.18
2023-02-19T15:32:16.999Z,62.12
2023-02-19T15:34:48.412Z,64.11
2023-02-19T15:37:16.087Z,63.48
2023-02-19T15:39:47.817Z,62.35
2023-02-19T15:42:16.825Z,62.01
2023-02-19T15:44:44.377Z,61.60
2023-02-19T15:47:14.872Z,60.73
2023-02-19T15:49:47.013Z,61.00
2023-02-19T15:52:20.571Z,59.36
2023-02-19T15:55:03.046Z,58.50
2023-02-19T15:57:32.405Z,59.22
2023-02-19T16:00:05.686Z,57.90
2023-02-19T16:02:39.477Z,58.85
2023-02-19T16:05:15.613Z,58.72
2023-02-19T16:07:43.745Z,58.80
2023-02-19T16:10:24.901Z,58.85
2023-02-19T16:12:56.120Z,58.63
2023-02-19T16:15:24.080Z,58.83
2023-02-19T16:17:51.372Z,57.92
2023-02-19T16:20:22.719Z,58.20
2023-02-19T16:22:50.741Z,60.87
2023-02-19T16:25:25.637Z,60.90
2023-02-19T16:27:53.271Z,60.41
2023-02-19T16:30:26.663Z,60.30
2023-02-19T16:33:13.111Z,59.96
2023-02-19T16:35:40.423Z,60.26
2023-02-19T16:38:16.010Z,60.41
2023-02-19T16:40:43.260Z,59.91
2023-02-19T16:43:13.650Z,60.55
2023-02-19T16:45:41.407Z,59.13
2023-02-19T16:48:08.933Z,59.05
2023-02-19T16:50:36.552Z,60.33
2023-02-19T16:53:04.057Z,59.55
2023-02-19T16:55:32.660Z,60.88
2023-02-19T16:58:00.477Z,59.61
2023-02-19T17:00:28.886Z,61.04
2023-02-19T17:02:57.455Z,61.04
2023-02-19T17:05:25.948Z,59.39
2023-02-19T17:07:53.390Z,59.39
2023-02-19T17:10:24.674Z,57.64
2023-02-19T17:12:52.577Z,60.86
2023-02-19T17:15:19.995Z,60.60
2023-02-19T17:17:47.361Z,60.58
2023-02-19T17:20:17.920Z,60.38
2023-02-19T17:22:45.270Z,59.06
2023-02-19T17:25:13.323Z,60.21
2023-02-19T17:27:41.398Z,58.96
2023-02-19T17:30:12.476Z,58.41
2023-02-19T17:32:39.831Z,57.40
2023-02-19T17:35:07.568Z,57.37
2023-02-19T17:37:34.787Z,57.14
2023-02-19T17:40:02.370Z,57.44
2023-02-19T17:42:31.146Z,57.02
2023-02-19T17:44:58.483Z,57.26
2023-02-19T17:47:25.804Z,56.92
2023-02-19T17:49:53.411Z,57.30
2023-02-19T17:52:20.830Z,57.29
2023-02-19T17:54:48.225Z,56.73
2023-02-19T17:57:15.910Z,58.25
2023-02-19T17:59:43.390Z,58.28
2023-02-19T18:02:12.249Z,58.78
2023-02-19T18:04:41.178Z,59.74
2023-02-19T18:07:08.888Z,60.09
2023-02-19T18:09:36.077Z,60.10
2023-02-19T18:12:03.909Z,60.87
2023-02-19T18:14:31.306Z,60.21
2023-02-19T18:16:58.805Z,59.81
2023-02-19T18:19:26.425Z,59.60
2023-02-19T18:21:53.823Z,59.44
2023-02-19T18:24:21.465Z,59.49
2023-02-19T18:26:49.142Z,61.02
2023-02-19T18:29:18.530Z,59.16
2023-02-19T18:31:47.030Z,60.20
2023-02-19T18:34:18.376Z,59.80
2023-02-19T18:36:46.377Z,60.44
2023-02-19T18:39:13.738Z,59.89
2023-02-19T18:41:41.393Z,61.61
2023-02-19T18:44:08.877Z,60.77
2023-02-19T18:46:36.022Z,60.20
2023-02-19T18:49:03.690Z,61.03
2023-02-19T18:51:30.879Z,60.87
2023-02-19T18:53:58.468Z,60.36
2023-02-19T18:56:26.106Z,61.32
2023-02-19T18:58:53.293Z,60.63
2023-02-19T19:01:23.200Z,60.95
2023-02-19T19:03:50.906Z,61.44
2023-02-19T19:06:18.380Z,60.43
2023-02-19T19:08:45.830Z,59.93
2023-02-19T19:11:13.676Z,60.96
2023-02-19T19:13:41.120Z,61.29
2023-02-19T19:16:08.495Z,60.57
2023-02-19T19:18:38.221Z,60.71
2023-02-19T19:21:05.991Z,60.86
2023-02-19T19:23:33.370Z,60.67
2023-02-19T19:26:06.715Z,59.28
2023-02-19T19:28:36.009Z,59.62
2023-02-19T19:31:03.712Z,60.11
2023-02-19T19:33:31.085Z,59.36
2023-02-19T19:35:58.496Z,61.74
2023-02-19T19:38:27.126Z,61.38
2023-02-19T19:40:54.829Z,60.87
2023-02-19T19:43:22.229Z,60.05
2023-02-19T19:45:50.452Z,59.84
2023-02-19T19:48:17.839Z,58.61
2023-02-19T19:50:45.250Z,56.47
2023-02-19T19:53:12.845Z,57.70
2023-02-19T19:55:40.226Z,58.68
2023-02-19T19:58:07.674Z,56.96
2023-02-19T20:00:35.260Z,57.96
2023-02-19T20:03:02.954Z,56.77
2023-02-19T20:05:30.400Z,55.64
2023-02-19T20:07:57.792Z,57.03
2023-02-19T20:10:25.495Z,56.58
2023-02-19T20:12:53.943Z,54.59
2023-02-19T20:15:22.049Z,55.63
2023-02-19T20:17:49.935Z,56.33
2023-02-19T20:20:18.004Z,57.78
2023-02-19T20:22:45.361Z,57.61
2023-02-19T20:25:13.067Z,58.77
2023-02-19T20:27:41.685Z,57.46
2023-02-19T20:30:11.507Z,56.70
2023-02-19T20:32:39.218Z,57.99
2023-02-19T20:35:06.696Z,57.95
2023-02-19T20:37:34.190Z,58.48
2023-02-19T20:40:02.041Z,57.48
2023-02-19T20:42:29.317Z,58.16
2023-02-19T20:44:57.695Z,57.90
2023-02-19T20:47:25.304Z,56.96
2023-02-19T20:49:52.771Z,57.38
2023-02-19T20:52:24.763Z,57.74
2023-02-19T20:54:55.992Z,58.59
2023-02-19T20:57:23.634Z,58.38
2023-02-19T20:59:50.925Z,59.65
2023-02-19T21:02:24.571Z,60.10
2023-02-19T21:04:52.140Z,60.12
2023-02-19T21:07:20.022Z,59.84
2023-02-19T21:09:47.368Z,59.34
2023-02-19T21:12:14.678Z,58.34
2023-02-19T21:14:42.303Z,60.15
2023-02-19T21:17:10.109Z,59.08
2023-02-19T21:19:37.284Z,59.51
2023-02-19T21:22:04.951Z,60.13
2023-02-19T21:24:32.828Z,60.01
2023-02-19T21:27:00.191Z,60.82
2023-02-19T21:29:27.849Z,61.70
2023-02-19T21:31:55.682Z,62.13
2023-02-19T21:34:24.281Z,62.05
2023-02-19T21:36:52.264Z,61.17
2023-02-19T21:39:20.236Z,62.05
2023-02-19T21:41:47.504Z,62.96
2023-02-19T21:44:15.106Z,63.03
2023-02-19T21:46:42.418Z,62.29
2023-02-19T21:49:09.734Z,60.79
2023-02-19T21:51:37.985Z,62.86
2023-02-19T21:54:06.071Z,61.55
2023-02-19T21:56:35.874Z,59.45
2023-02-19T21:59:03.812Z,60.90
2023-02-19T22:01:32.596Z,61.81
2023-02-19T22:04:00.411Z,61.68
2023-02-19T22:06:29.201Z,60.80
2023-02-19T22:08:56.890Z,60.73
2023-02-19T22:11:24.283Z,60.77
2023-02-19T22:13:51.555Z,60.87
2023-02-19T22:16:19.211Z,59.72
2023-02-19T22:18:50.367Z,59.72
2023-02-19T22:21:17.802Z,60.73
2023-02-19T22:23:48.283Z,59.92
2023-02-19T22:26:19.695Z,58.94
2023-02-19T22:28:47.854Z,58.42
2023-02-19T22:31:16.075Z,57.57
2023-02-19T22:33:43.812Z,56.73
2023-02-19T22:36:15.163Z,57.18
2023-02-19T22:38:42.610Z,56.72
2023-02-19T22:41:10.091Z,56.62
2023-02-19T22:43:37.259Z,58.64
2023-02-19T22:46:04.668Z,55.53
2023-02-19T22:48:32.147Z,55.39
2023-02-19T22:50:59.307Z,57.33
2023-02-19T22:53:26.544Z,56.06
2023-02-19T22:55:53.954Z,55.15
2023-02-19T22:58:21.083Z,53.41
2023-02-19T23:00:48.355Z,53.41
2023-02-19T23:03:15.893Z,51.89
2023-02-19T23:05:43.117Z,53.03
2023-02-19T23:08:10.362Z,52.46
2023-02-19T23:10:37.802Z,51.77
2023-02-19T23:13:04.928Z,51.04
2023-02-19T23:15:32.174Z,49.94
2023-02-19T23:17:59.998Z,49.93
2023-02-19T23:20:27.149Z,50.21
2023-02-19T23:22:54.361Z,50.36
2023-02-19T23:25:21.750Z,50.88
2023-02-19T23:27:48.870Z,49.71
2023-02-19T23:30:17.067Z,50.46
2023-02-19T23:32:44.552Z,48.94
2023-02-19T23:35:11.726Z,50.04
2023-02-19T23:37:38.956Z,49.67
2023-02-19T23:40:06.616Z,49.37
2023-02-19T23:42:33.742Z,48.91
2023-02-19T23:45:00.930Z,49.17
2023-02-19T23:47:30.627Z,49.61
2023-02-19T23:49:57.948Z,49.49
2023-02-19T23:52:25.188Z,49.22
2023-02-19T23:54:52.577Z,48.18
2023-02-19T23:57:19.779Z,46.72
2023-02-19T23:59:49.134Z,48.87
